sensor_id;sensor_type;location;lat;lon;timestamp;pressure;altitude;pressure_sealevel;temperature;humidity
23643;BME280;11998;55.788;37.572;2023-02-03T00:00:24;98354.22;;;0.43;100.00
23643;BME280;11998;55.788;37.572;2023-02-03T00:01:27;98336.00;;;0.40;100.00
23643;BME280;11998;55.788;37.572;2023-02-03T00:02:28;98337.72;;;0.36;100.00
23643;BME280;11998;55.788;37.572;2023-02-03T00:03:28;98346.41;;;0.38;100.00
23643;BME280;11998;55.788;37.572;2023-02-03T00:04:29;98341.19;;;0.41;100.00
23643;BME280;11998;55.788;37.572;2023-02-03T00:05:31;98347.28;;;0.39;100.00
23643;BME280;11998;55.788;37.572;2023-02-03T00:06:34;98343.78;;;0.37;100.00
23643;BME280;11998;55.788;37.572;2023-02-03T00:07:36;98339.47;;;0.28;100.00
23643;BME280;11998;55.788;37.572;2023-02-03T00:08:38;98343.81;;;0.31;100.00
23643;BME280;11998;55.788;37.572;2023-02-03T00:09:39;98342.94;;;0.32;100.00
23643;BME280;11998;55.788;37.572;2023-02-03T00:10:40;98342.06;;;0.36;100.00
23643;BME280;11998;55.788;37.572;2023-02-03T00:11:41;98336.88;;;0.40;100.00
23643;BME280;11998;55.788;37.572;2023-02-03T00:12:42;98338.59;;;0.43;100.00
23643;BME280;11998;55.788;37.572;2023-02-03T00:13:42;98347.28;;;0.45;100.00
23643;BME280;11998;55.788;37.572;2023-02-03T00:14:43;98343.81;;;0.43;100.00
23643;BME280;11998;55.788;37.572;2023-02-03T00:15:43;98346.41;;;0.44;100.00
23643;BME280;11998;55.788;37.572;2023-02-03T00:16:44;98344.66;;;0.36;100.00
23643;BME280;11998;55.788;37.572;2023-02-03T00:17:44;98341.19;;;0.35;100.00
23643;BME280;11998;55.788;37.572;2023-02-03T00:18:45;98357.69;;;0.33;100.00
23643;BME280;11998;55.788;37.572;2023-02-03T00:19:46;98345.53;;;0.35;100.00
23643;BME280;11998;55.788;37.572;2023-02-03T00:20:47;98342.91;;;0.35;100.00
23643;BME280;11998;55.788;37.572;2023-02-03T00:21:47;98347.28;;;0.31;100.00
23643;BME280;11998;55.788;37.572;2023-02-03T00:22:48;98352.47;;;0.36;100.00
23643;BME280;11998;55.788;37.572;2023-02-03T00:23:49;98355.94;;;0.35;100.00
23643;BME280;11998;55.788;37.572;2023-02-03T00:24:49;98352.47;;;0.29;100.00
23643;BME280;11998;55.788;37.572;2023-02-03T00:25:51;98346.41;;;0.34;100.00
23643;BME280;11998;55.788;37.572;2023-02-03T00:26:51;98356.81;;;0.35;100.00
23643;BME280;11998;55.788;37.572;2023-02-03T00:27:52;98352.50;;;0.26;100.00
23643;BME280;11998;55.788;37.572;2023-02-03T00:28:53;98346.41;;;0.34;100.00
23643;BME280;11998;55.788;37.572;2023-02-03T00:29:53;98350.75;;;0.38;100.00
23643;BME280;11998;55.788;37.572;2023-02-03T00:30:54;98352.47;;;0.31;100.00
23643;BME280;11998;55.788;37.572;2023-02-03T00:31:54;98357.69;;;0.33;100.00
23643;BME280;11998;55.788;37.572;2023-02-03T00:32:55;98341.19;;;0.32;100.00
23643;BME280;11998;55.788;37.572;2023-02-03T00:33:56;98345.56;;;0.38;100.00
23643;BME280;11998;55.788;37.572;2023-02-03T00:34:57;98354.22;;;0.40;100.00
23643;BME280;11998;55.788;37.572;2023-02-03T00:36:04;98349.84;;;0.37;100.00
23643;BME280;11998;55.788;37.572;2023-02-03T00:37:04;98356.81;;;0.41;100.00
23643;BME280;11998;55.788;37.572;2023-02-03T00:38:05;98352.47;;;0.42;100.00
23643;BME280;11998;55.788;37.572;2023-02-03T00:39:05;98345.53;;;0.44;100.00
23643;BME280;11998;55.788;37.572;2023-02-03T00:40:06;98343.78;;;0.37;100.00
23643;BME280;11998;55.788;37.572;2023-02-03T00:41:07;98349.00;;;0.31;100.00
23643;BME280;11998;55.788;37.572;2023-02-03T00:42:08;98352.47;;;0.36;100.00
23643;BME280;11998;55.788;37.572;2023-02-03T00:43:08;98352.50;;;0.39;100.00
23643;BME280;11998;55.788;37.572;2023-02-03T00:44:09;98350.75;;;0.38;100.00
23643;BME280;11998;55.788;37.572;2023-02-03T00:45:10;98355.97;;;0.38;100.00
23643;BME280;11998;55.788;37.572;2023-02-03T00:46:10;98355.09;;;0.40;100.00
23643;BME280;11998;55.788;37.572;2023-02-03T00:47:11;98352.50;;;0.39;100.00
23643;BME280;11998;55.788;37.572;2023-02-03T00:48:11;98349.88;;;0.39;100.00
23643;BME280;11998;55.788;37.572;2023-02-03T00:49:13;98341.22;;;0.40;100.00
23643;BME280;11998;55.788;37.572;2023-02-03T00:50:14;98349.00;;;0.40;100.00
23643;BME280;11998;55.788;37.572;2023-02-03T00:51:14;98345.53;;;0.41;100.00
23643;BME280;11998;55.788;37.572;2023-02-03T00:52:15;98345.53;;;0.41;100.00
23643;BME280;11998;55.788;37.572;2023-02-03T00:53:16;98342.94;;;0.28;100.00
23643;BME280;11998;55.788;37.572;2023-02-03T00:54:16;98348.13;;;0.32;100.00
23643;BME280;11998;55.788;37.572;2023-02-03T00:55:17;98345.53;;;0.28;100.00
23643;BME280;11998;55.788;37.572;2023-02-03T00:56:18;98342.94;;;0.28;100.00
23643;BME280;11998;55.788;37.572;2023-02-03T00:57:18;98352.50;;;0.26;100.00
23643;BME280;11998;55.788;37.572;2023-02-03T00:58:19;98343.78;;;0.21;100.00
23643;BME280;11998;55.788;37.572;2023-02-03T00:59:19;98351.63;;;0.29;100.00
23643;BME280;11998;55.788;37.572;2023-02-03T01:00:20;98346.41;;;0.31;100.00
23643;BME280;11998;55.788;37.572;2023-02-03T01:01:23;98348.13;;;0.35;100.00
23643;BME280;11998;55.788;37.572;2023-02-03T01:02:24;98347.25;;;0.36;100.00
23643;BME280;11998;55.788;37.572;2023-02-03T01:03:25;98349.00;;;0.37;100.00
23643;BME280;11998;55.788;37.572;2023-02-03T01:04:25;98349.00;;;0.34;100.00
23643;BME280;11998;55.788;37.572;2023-02-03T01:05:26;98342.06;;;0.33;100.00
23643;BME280;11998;55.788;37.572;2023-02-03T01:06:27;98350.72;;;0.35;100.00
23643;BME280;11998;55.788;37.572;2023-02-03T01:07:30;98355.06;;;0.36;100.00
23643;BME280;11998;55.788;37.572;2023-02-03T01:08:32;98345.53;;;0.28;100.00
23643;BME280;11998;55.788;37.572;2023-02-03T01:09:34;98340.34;;;0.28;100.00
23643;BME280;11998;55.788;37.572;2023-02-03T01:10:36;98335.97;;;0.35;100.00
23643;BME280;11998;55.788;37.572;2023-02-03T01:11:37;98335.97;;;0.37;100.00
23643;BME280;11998;55.788;37.572;2023-02-03T01:12:38;98329.91;;;0.41;100.00
23643;BME280;11998;55.788;37.572;2023-02-03T01:13:38;98335.13;;;0.41;100.00
23643;BME280;11998;55.788;37.572;2023-02-03T01:14:39;98330.78;;;0.44;100.00
23643;BME280;11998;55.788;37.572;2023-02-03T01:15:46;98328.19;;;0.40;100.00
23643;BME280;11998;55.788;37.572;2023-02-03T01:16:47;98330.78;;;0.44;100.00
23643;BME280;11998;55.788;37.572;2023-02-03T01:17:48;98330.75;;;0.47;100.00
23643;BME280;11998;55.788;37.572;2023-02-03T01:18:49;98326.44;;;0.48;100.00
23643;BME280;11998;55.788;37.572;2023-02-03T01:19:51;98322.09;;;0.53;100.00
23643;BME280;11998;55.788;37.572;2023-02-03T01:20:51;98333.38;;;0.49;100.00
23643;BME280;11998;55.788;37.572;2023-02-03T01:21:52;98329.91;;;0.50;100.00
23643;BME280;11998;55.788;37.572;2023-02-03T01:22:53;98327.31;;;0.50;100.00
23643;BME280;11998;55.788;37.572;2023-02-03T01:23:54;98318.63;;;0.52;100.00
23643;BME280;11998;55.788;37.572;2023-02-03T01:24:55;98321.25;;;0.51;100.00
23643;BME280;11998;55.788;37.572;2023-02-03T01:25:55;98317.75;;;0.52;100.00
23643;BME280;11998;55.788;37.572;2023-02-03T01:26:56;98334.25;;;0.52;100.00
23643;BME280;11998;55.788;37.572;2023-02-03T01:27:57;98336.84;;;0.48;100.00
23643;BME280;11998;55.788;37.572;2023-02-03T01:28:58;98337.72;;;0.42;100.00
23643;BME280;11998;55.788;37.572;2023-02-03T01:29:59;98329.91;;;0.41;100.00
23643;BME280;11998;55.788;37.572;2023-02-03T01:31:17;98328.19;;;0.40;100.00
23643;BME280;11998;55.788;37.572;2023-02-03T01:32:19;98329.91;;;0.41;100.00
23643;BME280;11998;55.788;37.572;2023-02-03T01:33:19;98324.72;;;0.41;100.00
23643;BME280;11998;55.788;37.572;2023-02-03T01:34:20;98332.53;;;0.42;100.00
23643;BME280;11998;55.788;37.572;2023-02-03T01:35:21;98337.72;;;0.45;100.00
23643;BME280;11998;55.788;37.572;2023-02-03T01:36:23;98333.38;;;0.43;100.00
23643;BME280;11998;55.788;37.572;2023-02-03T01:37:24;98334.25;;;0.45;100.00
23643;BME280;11998;55.788;37.572;2023-02-03T01:38:25;98339.44;;;0.45;100.00
23643;BME280;11998;55.788;37.572;2023-02-03T01:39:25;98335.97;;;0.46;100.00
23643;BME280;11998;55.788;37.572;2023-02-03T01:40:26;98339.44;;;0.46;100.00
23643;BME280;11998;55.788;37.572;2023-02-03T01:41:29;98340.31;;;0.44;100.00
23643;BME280;11998;55.788;37.572;2023-02-03T01:42:33;98345.53;;;0.41;100.00
23643;BME280;11998;55.788;37.572;2023-02-03T01:43:39;98338.59;;;0.27;100.00
23643;BME280;11998;55.788;37.572;2023-02-03T01:44:48;98343.81;;;0.27;100.00
23643;BME280;11998;55.788;37.572;2023-02-03T01:45:52;98331.66;;;0.26;100.00
23643;BME280;11998;55.788;37.572;2023-02-03T01:46:53;98343.78;;;0.21;100.00
23643;BME280;11998;55.788;37.572;2023-02-03T01:47:57;98338.56;;;0.21;100.00
23643;BME280;11998;55.788;37.572;2023-02-03T01:49:23;98338.59;;;0.26;100.00
23643;BME280;11998;55.788;37.572;2023-02-03T01:50:33;98340.31;;;0.22;100.00
23643;BME280;11998;55.788;37.572;2023-02-03T01:51:35;98333.38;;;0.24;100.00
23643;BME280;11998;55.788;37.572;2023-02-03T01:52:40;98336.88;;;0.26;100.00
23643;BME280;11998;55.788;37.572;2023-02-03T01:53:42;98343.78;;;0.24;100.00
23643;BME280;11998;55.788;37.572;2023-02-03T01:54:44;98330.75;;;0.24;100.00
23643;BME280;11998;55.788;37.572;2023-02-03T01:55:48;98338.56;;;0.21;100.00
23643;BME280;11998;55.788;37.572;2023-02-03T01:56:53;98331.63;;;0.23;100.00
23643;BME280;11998;55.788;37.572;2023-02-03T01:58:02;98332.50;;;0.19;100.00
23643;BME280;11998;55.788;37.572;2023-02-03T01:59:04;98322.97;;;0.18;100.00
23643;BME280;11998;55.788;37.572;2023-02-03T02:00:06;98326.44;;;0.26;100.00
23643;BME280;11998;55.788;37.572;2023-02-03T02:01:07;98335.13;;;0.25;100.00
23643;BME280;11998;55.788;37.572;2023-02-03T02:02:08;98324.72;;;0.25;100.00
23643;BME280;11998;55.788;37.572;2023-02-03T02:03:10;98329.91;;;0.32;100.00
23643;BME280;11998;55.788;37.572;2023-02-03T02:04:12;98323.81;;;0.34;100.00
23643;BME280;11998;55.788;37.572;2023-02-03T02:05:19;98321.22;;;0.43;100.00
23643;BME280;11998;55.788;37.572;2023-02-03T02:06:21;98327.31;;;0.42;100.00
23643;BME280;11998;55.788;37.572;2023-02-03T02:07:23;98317.75;;;0.49;100.00
23643;BME280;11998;55.788;37.572;2023-02-03T02:08:24;98323.84;;;0.52;100.00
23643;BME280;11998;55.788;37.572;2023-02-03T02:09:25;98328.19;;;0.43;100.00
23643;BME280;11998;55.788;37.572;2023-02-03T02:10:28;98333.38;;;0.46;100.00
23643;BME280;11998;55.788;37.572;2023-02-03T02:11:29;98324.72;;;0.41;100.00
23643;BME280;11998;55.788;37.572;2023-02-03T02:12:30;98321.25;;;0.39;100.00
23643;BME280;11998;55.788;37.572;2023-02-03T02:13:32;98328.19;;;0.40;100.00
23643;BME280;11998;55.788;37.572;2023-02-03T02:14:34;98322.97;;;0.43;100.00
23643;BME280;11998;55.788;37.572;2023-02-03T02:15:53;98315.13;;;0.47;100.00
23643;BME280;11998;55.788;37.572;2023-02-03T02:17:07;98316.00;;;0.48;100.00
23643;BME280;11998;55.788;37.572;2023-02-03T02:18:22;98317.75;;;0.46;100.00
23643;BME280;11998;55.788;37.572;2023-02-03T02:25:03;98327.31;;;0.42;100.00
23643;BME280;11998;55.788;37.572;2023-02-03T02:40:00;98322.97;;;0.21;100.00
23643;BME280;11998;55.788;37.572;2023-02-03T02:42:38;98323.84;;;0.17;100.00
23643;BME280;11998;55.788;37.572;2023-02-03T02:43:46;98318.63;;;0.19;100.00
23643;BME280;11998;55.788;37.572;2023-02-03T02:44:52;98324.69;;;0.19;100.00
23643;BME280;11998;55.788;37.572;2023-02-03T02:46:00;98316.88;;;0.19;100.00
23643;BME280;11998;55.788;37.572;2023-02-03T02:47:06;98325.56;;;0.15;100.00
23643;BME280;11998;55.788;37.572;2023-02-03T02:48:20;98319.50;;;0.19;100.00
23643;BME280;11998;55.788;37.572;2023-02-03T02:49:41;98318.63;;;0.20;100.00
23643;BME280;11998;55.788;37.572;2023-02-03T02:50:48;98316.03;;;0.26;100.00
23643;BME280;11998;55.788;37.572;2023-02-03T02:51:51;98315.16;;;0.26;100.00
23643;BME280;11998;55.788;37.572;2023-02-03T02:52:53;98316.03;;;0.26;100.00
23643;BME280;11998;55.788;37.572;2023-02-03T02:53:59;98313.41;;;0.29;100.00
23643;BME280;11998;55.788;37.572;2023-02-03T02:55:23;98318.63;;;0.36;100.00
23643;BME280;11998;55.788;37.572;2023-02-03T02:56:28;98322.97;;;0.35;100.00
23643;BME280;11998;55.788;37.572;2023-02-03T02:57:33;98312.56;;;0.27;100.00
23643;BME280;11998;55.788;37.572;2023-02-03T02:58:38;98316.91;;;0.28;100.00
23643;BME280;11998;55.788;37.572;2023-02-03T02:59:40;98328.19;;;0.29;100.00
23643;BME280;11998;55.788;37.572;2023-02-03T03:00:42;98315.16;;;0.31;100.00
23643;BME280;11998;55.788;37.572;2023-02-03T03:01:43;98324.72;;;0.28;100.00
23643;BME280;11998;55.788;37.572;2023-02-03T03:02:44;98327.31;;;0.27;100.00
23643;BME280;11998;55.788;37.572;2023-02-03T03:03:44;98317.75;;;0.24;100.00
23643;BME280;11998;55.788;37.572;2023-02-03T03:04:46;98322.97;;;0.27;100.00
23643;BME280;11998;55.788;37.572;2023-02-03T03:05:54;98327.31;;;0.30;100.00
23643;BME280;11998;55.788;37.572;2023-02-03T03:07:00;98322.97;;;0.31;100.00
23643;BME280;11998;55.788;37.572;2023-02-03T03:08:02;98316.88;;;0.36;100.00
23643;BME280;11998;55.788;37.572;2023-02-03T03:09:07;98319.50;;;0.38;100.00
23643;BME280;11998;55.788;37.572;2023-02-03T03:10:11;98321.22;;;0.45;100.00
23643;BME280;11998;55.788;37.572;2023-02-03T03:11:13;98317.75;;;0.46;100.00
23643;BME280;11998;55.788;37.572;2023-02-03T03:13:22;98319.47;;;0.47;100.00
23643;BME280;11998;55.788;37.572;2023-02-03T03:14:26;98322.97;;;0.43;100.00
23643;BME280;11998;55.788;37.572;2023-02-03T03:15:30;98326.44;;;0.48;100.00
23643;BME280;11998;55.788;37.572;2023-02-03T03:16:34;98322.09;;;0.50;100.00
23643;BME280;11998;55.788;37.572;2023-02-03T03:17:47;98319.47;;;0.56;100.00
23643;BME280;11998;55.788;37.572;2023-02-03T03:18:53;98322.06;;;0.59;100.00
23643;BME280;11998;55.788;37.572;2023-02-03T03:19:59;98321.22;;;0.63;100.00
23643;BME280;11998;55.788;37.572;2023-02-03T03:21:02;98327.31;;;0.65;100.00
23643;BME280;11998;55.788;37.572;2023-02-03T03:22:08;98321.19;;;0.60;100.00
23643;BME280;11998;55.788;37.572;2023-02-03T03:23:25;98317.75;;;0.64;100.00
23643;BME280;11998;55.788;37.572;2023-02-03T03:24:31;98319.50;;;0.62;100.00
23643;BME280;11998;55.788;37.572;2023-02-03T03:25:40;98321.19;;;0.60;100.00
23643;BME280;11998;55.788;37.572;2023-02-03T03:26:55;98325.56;;;0.66;100.00
23643;BME280;11998;55.788;37.572;2023-02-03T03:28:02;98325.53;;;0.70;100.00
23643;BME280;11998;55.788;37.572;2023-02-03T03:29:12;98319.47;;;0.77;100.00
23643;BME280;11998;55.788;37.572;2023-02-03T03:30:21;98314.25;;;0.77;100.00
23643;BME280;11998;55.788;37.572;2023-02-03T03:31:23;98321.19;;;0.81;100.00
23643;BME280;11998;55.788;37.572;2023-02-03T03:32:24;98318.59;;;0.78;100.00
23643;BME280;11998;55.788;37.572;2023-02-03T03:33:27;98317.69;;;0.82;100.00
23643;BME280;11998;55.788;37.572;2023-02-03T03:34:29;98314.25;;;0.80;100.00
23643;BME280;11998;55.788;37.572;2023-02-03T03:35:40;98321.19;;;0.81;100.00
23643;BME280;11998;55.788;37.572;2023-02-03T03:37:02;98322.91;;;0.82;100.00
23643;BME280;11998;55.788;37.572;2023-02-03T03:38:10;98312.50;;;0.70;100.00
23643;BME280;11998;55.788;37.572;2023-02-03T03:39:17;98320.34;;;0.67;100.00
23643;BME280;11998;55.788;37.572;2023-02-03T03:40:25;98321.22;;;0.66;100.00
23643;BME280;11998;55.788;37.572;2023-02-03T03:42:58;98325.53;;;0.70;100.00
23643;BME280;11998;55.788;37.572;2023-02-03T03:44:03;98318.59;;;0.72;100.00
23643;BME280;11998;55.788;37.572;2023-02-03T03:45:18;98322.06;;;0.71;100.00
23643;BME280;11998;55.788;37.572;2023-02-03T03:46:27;98323.81;;;0.69;100.00
23643;BME280;11998;55.788;37.572;2023-02-03T03:47:34;98318.59;;;0.71;100.00
23643;BME280;11998;55.788;37.572;2023-02-03T03:49:48;98331.63;;;0.75;100.00
23643;BME280;11998;55.788;37.572;2023-02-03T03:50:56;98319.44;;;0.74;100.00
23643;BME280;11998;55.788;37.572;2023-02-03T03:52:03;98317.72;;;0.79;100.00
23643;BME280;11998;55.788;37.572;2023-02-03T03:53:06;98329.00;;;0.74;100.00
23643;BME280;11998;55.788;37.572;2023-02-03T03:54:11;98326.41;;;0.75;100.00
23643;BME280;11998;55.788;37.572;2023-02-03T03:55:13;98322.06;;;0.74;100.00
23643;BME280;11998;55.788;37.572;2023-02-03T03:56:27;98326.41;;;0.72;100.00
23643;BME280;11998;55.788;37.572;2023-02-03T03:57:37;98328.16;;;0.70;100.00
23643;BME280;11998;55.788;37.572;2023-02-03T03:58:41;98324.69;;;0.68;100.00
23643;BME280;11998;55.788;37.572;2023-02-03T03:59:47;98321.19;;;0.69;100.00
23643;BME280;11998;55.788;37.572;2023-02-03T04:00:49;98329.03;;;0.68;100.00
23643;BME280;11998;55.788;37.572;2023-02-03T04:01:52;98328.16;;;0.64;100.00
23643;BME280;11998;55.788;37.572;2023-02-03T04:02:54;98320.34;;;0.69;100.00
23643;BME280;11998;55.788;37.572;2023-02-03T04:03:58;98324.69;;;0.61;100.00
23643;BME280;11998;55.788;37.572;2023-02-03T04:05:00;98324.69;;;0.68;100.00
23643;BME280;11998;55.788;37.572;2023-02-03T04:06:02;98326.41;;;0.68;100.00
23643;BME280;11998;55.788;37.572;2023-02-03T04:07:02;98322.94;;;0.70;100.00
23643;BME280;11998;55.788;37.572;2023-02-03T04:08:03;98319.47;;;0.71;100.00
23643;BME280;11998;55.788;37.572;2023-02-03T04:09:04;98326.41;;;0.75;100.00
23643;BME280;11998;55.788;37.572;2023-02-03T04:10:20;98335.09;;;0.80;100.00
23643;BME280;11998;55.788;37.572;2023-02-03T04:11:22;98325.53;;;0.73;100.00
23643;BME280;11998;55.788;37.572;2023-02-03T04:12:42;98328.13;;;0.73;100.00
23643;BME280;11998;55.788;37.572;2023-02-03T04:13:42;98328.16;;;0.76;100.00
23643;BME280;11998;55.788;37.572;2023-02-03T04:14:43;98320.31;;;0.78;100.00
23643;BME280;11998;55.788;37.572;2023-02-03T04:15:43;98322.91;;;0.82;100.00
23643;BME280;11998;55.788;37.572;2023-02-03T04:16:44;98322.03;;;0.86;100.00
23643;BME280;11998;55.788;37.572;2023-02-03T04:17:45;98333.34;;;0.82;100.00
23643;BME280;11998;55.788;37.572;2023-02-03T04:18:45;98320.31;;;0.88;100.00
23643;BME280;11998;55.788;37.572;2023-02-03T04:19:47;98319.44;;;0.90;100.00
23643;BME280;11998;55.788;37.572;2023-02-03T04:20:48;98324.66;;;0.90;100.00
23643;BME280;11998;55.788;37.572;2023-02-03T04:21:50;98328.13;;;0.92;100.00
23643;BME280;11998;55.788;37.572;2023-02-03T04:22:51;98321.16;;;0.94;100.00
23643;BME280;11998;55.788;37.572;2023-02-03T04:23:51;98329.84;;;0.93;100.00
23643;BME280;11998;55.788;37.572;2023-02-03T04:24:52;98319.44;;;0.83;100.00
23643;BME280;11998;55.788;37.572;2023-02-03T04:25:52;98320.31;;;0.88;100.00
23643;BME280;11998;55.788;37.572;2023-02-03T04:26:53;98321.16;;;0.94;100.00
23643;BME280;11998;55.788;37.572;2023-02-03T04:27:54;98316.81;;;0.91;100.00
23643;BME280;11998;55.788;37.572;2023-02-03T04:28:55;98332.47;;;0.85;100.00
23643;BME280;11998;55.788;37.572;2023-02-03T04:29:55;98323.78;;;0.92;100.00
23643;BME280;11998;55.788;37.572;2023-02-03T04:30:59;98328.09;;;0.93;100.00
23643;BME280;11998;55.788;37.572;2023-02-03T04:32:00;98321.16;;;0.91;100.00
23643;BME280;11998;55.788;37.572;2023-02-03T04:33:00;98326.41;;;0.87;100.00
23643;BME280;11998;55.788;37.572;2023-02-03T04:34:01;98328.13;;;0.92;100.00
23643;BME280;11998;55.788;37.572;2023-02-03T04:35:05;98330.72;;;0.90;100.00
23643;BME280;11998;55.788;37.572;2023-02-03T04:36:06;98327.25;;;0.88;100.00
23643;BME280;11998;55.788;37.572;2023-02-03T04:37:07;98334.19;;;0.91;100.00
23643;BME280;11998;55.788;37.572;2023-02-03T04:38:08;98328.09;;;0.95;100.00
23643;BME280;11998;55.788;37.572;2023-02-03T04:39:08;98331.63;;;0.80;100.00
23643;BME280;11998;55.788;37.572;2023-02-03T04:40:10;98329.84;;;0.83;100.00
23643;BME280;11998;55.788;37.572;2023-02-03T04:41:10;98329.00;;;0.91;100.00
23643;BME280;11998;55.788;37.572;2023-02-03T04:42:11;98336.78;;;0.94;100.00
23643;BME280;11998;55.788;37.572;2023-02-03T04:43:12;98331.59;;;0.94;100.00
23643;BME280;11998;55.788;37.572;2023-02-03T04:44:13;98328.13;;;0.92;100.00
23643;BME280;11998;55.788;37.572;2023-02-03T04:45:14;98333.31;;;0.95;100.00
23643;BME280;11998;55.788;37.572;2023-02-03T04:46:14;98330.69;;;0.96;100.00
23643;BME280;11998;55.788;37.572;2023-02-03T04:47:16;98328.09;;;1.01;100.00
23643;BME280;11998;55.788;37.572;2023-02-03T04:48:17;98336.78;;;1.03;100.00
23643;BME280;11998;55.788;37.572;2023-02-03T04:49:17;98334.16;;;1.04;100.00
23643;BME280;11998;55.788;37.572;2023-02-03T04:50:18;98340.25;;;1.05;100.00
23643;BME280;11998;55.788;37.572;2023-02-03T04:51:19;98334.19;;;1.03;100.00
23643;BME280;11998;55.788;37.572;2023-02-03T04:52:19;98333.31;;;0.95;100.00
23643;BME280;11998;55.788;37.572;2023-02-03T04:53:20;98327.22;;;1.03;100.00
23643;BME280;11998;55.788;37.572;2023-02-03T04:54:20;98328.09;;;1.04;100.00
23643;BME280;11998;55.788;37.572;2023-02-03T04:55:21;98321.09;;;1.09;100.00
23643;BME280;11998;55.788;37.572;2023-02-03T04:56:22;98322.84;;;1.07;100.00
23643;BME280;11998;55.788;37.572;2023-02-03T04:57:22;98322.84;;;1.11;100.00
23643;BME280;11998;55.788;37.572;2023-02-03T04:58:23;98322.84;;;1.14;100.00
23643;BME280;11998;55.788;37.572;2023-02-03T04:59:26;98322.84;;;1.16;100.00
23643;BME280;11998;55.788;37.572;2023-02-03T05:00:27;98321.94;;;1.20;100.00
23643;BME280;11998;55.788;37.572;2023-02-03T05:01:28;98317.59;;;1.22;100.00
23643;BME280;11998;55.788;37.572;2023-02-03T05:02:29;98319.31;;;1.23;100.00
23643;BME280;11998;55.788;37.572;2023-02-03T05:03:29;98322.81;;;1.25;100.00
23643;BME280;11998;55.788;37.572;2023-02-03T05:04:31;98325.41;;;1.30;100.00
23643;BME280;11998;55.788;37.572;2023-02-03T05:05:31;98324.53;;;1.28;100.00
23643;BME280;11998;55.788;37.572;2023-02-03T05:06:32;98327.16;;;1.28;100.00
23643;BME280;11998;55.788;37.572;2023-02-03T05:07:33;98320.16;;;1.31;100.00
23643;BME280;11998;55.788;37.572;2023-02-03T05:08:34;98319.28;;;1.32;100.00
23643;BME280;11998;55.788;37.572;2023-02-03T05:09:35;98326.22;;;1.35;100.00
23643;BME280;11998;55.788;37.572;2023-02-03T05:10:35;98323.63;;;1.35;100.00
23643;BME280;11998;55.788;37.572;2023-02-03T05:11:36;98329.72;;;1.40;100.00
23643;BME280;11998;55.788;37.572;2023-02-03T05:12:37;98322.72;;;1.45;100.00
23643;BME280;11998;55.788;37.572;2023-02-03T05:13:37;98327.94;;;1.50;100.00
23643;BME280;11998;55.788;37.572;2023-02-03T05:14:38;98323.59;;;1.42;100.00
23643;BME280;11998;55.788;37.572;2023-02-03T05:15:38;98320.09;;;1.45;100.00
23643;BME280;11998;55.788;37.572;2023-02-03T05:16:39;98325.31;;;1.45;100.00
23643;BME280;11998;55.788;37.572;2023-02-03T05:17:42;98329.66;;;1.47;100.00
23643;BME280;11998;55.788;37.572;2023-02-03T05:18:43;98326.19;;;1.45;100.00
23643;BME280;11998;55.788;37.572;2023-02-03T05:19:44;98329.66;;;1.51;100.00
23643;BME280;11998;55.788;37.572;2023-02-03T05:20:44;98328.75;;;1.55;100.00
23643;BME280;11998;55.788;37.572;2023-02-03T05:21:45;98325.28;;;1.57;100.00
23643;BME280;11998;55.788;37.572;2023-02-03T05:22:46;98324.41;;;1.57;100.00
23643;BME280;11998;55.788;37.572;2023-02-03T05:23:47;98326.19;;;1.52;100.00
23643;BME280;11998;55.788;37.572;2023-02-03T05:24:48;98323.59;;;1.50;100.00
23643;BME280;11998;55.788;37.572;2023-02-03T05:25:48;98326.19;;;1.52;100.00
23643;BME280;11998;55.788;37.572;2023-02-03T05:26:49;98323.56;;;1.48;100.00
23643;BME280;11998;55.788;37.572;2023-02-03T05:27:50;98320.13;;;1.43;100.00
23643;BME280;11998;55.788;37.572;2023-02-03T05:28:50;98327.97;;;1.40;100.00
23643;BME280;11998;55.788;37.572;2023-02-03T05:29:51;98320.09;;;1.45;100.00
23643;BME280;11998;55.788;37.572;2023-02-03T05:30:51;98322.72;;;1.46;100.00
23643;BME280;11998;55.788;37.572;2023-02-03T05:31:52;98329.72;;;1.38;100.00
23643;BME280;11998;55.788;37.572;2023-02-03T05:32:53;98325.38;;;1.39;100.00
23643;BME280;11998;55.788;37.572;2023-02-03T05:33:54;98329.72;;;1.38;100.00
23643;BME280;11998;55.788;37.572;2023-02-03T05:34:54;98341.03;;;1.33;100.00
23643;BME280;11998;55.788;37.572;2023-02-03T05:35:55;98322.78;;;1.31;100.00
23643;BME280;11998;55.788;37.572;2023-02-03T05:36:56;98322.78;;;1.30;100.00
23643;BME280;11998;55.788;37.572;2023-02-03T05:37:57;98331.50;;;1.24;100.00
23643;BME280;11998;55.788;37.572;2023-02-03T05:38:58;98322.81;;;1.22;100.00
23643;BME280;11998;55.788;37.572;2023-02-03T05:39:59;98323.72;;;1.06;100.00
23643;BME280;11998;55.788;37.572;2023-02-03T05:41:19;98332.41;;;1.15;100.00
23643;BME280;11998;55.788;37.572;2023-02-03T05:42:38;98334.16;;;1.07;100.00
23643;BME280;11998;55.788;37.572;2023-02-03T05:43:39;98329.81;;;0.97;100.00
23643;BME280;11998;55.788;37.572;2023-02-03T05:44:40;98326.34;;;1.06;100.00
23643;BME280;11998;55.788;37.572;2023-02-03T05:45:40;98335.88;;;1.16;100.00
23643;BME280;11998;55.788;37.572;2023-02-03T05:46:41;98331.50;;;1.24;100.00
23643;BME280;11998;55.788;37.572;2023-02-03T05:47:42;98332.34;;;1.29;100.00
23643;BME280;11998;55.788;37.572;2023-02-03T05:48:45;98335.84;;;1.25;100.00
23643;BME280;11998;55.788;37.572;2023-02-03T05:49:46;98331.47;;;1.33;100.00
23643;BME280;11998;55.788;37.572;2023-02-03T05:50:46;98327.09;;;1.40;100.00
23643;BME280;11998;55.788;37.572;2023-02-03T05:51:47;98327.97;;;1.37;100.00
23643;BME280;11998;55.788;37.572;2023-02-03T05:52:48;98340.19;;;1.26;100.00
23643;BME280;11998;55.788;37.572;2023-02-03T05:53:49;98333.22;;;1.31;100.00